sensor_id;sensor_type;location;lat;lon;timestamp;pressure;altitude;pressure_sealevel;temperature;humidity
13414;BME280;6778;48.136;11.386;2023-01-08T00:02:01;94970.09;;;3.13;85.93
13414;BME280;6778;48.136;11.386;2023-01-08T00:04:33;94966.16;;;3.17;85.81
13414;BME280;6778;48.136;11.386;2023-01-08T00:07:03;94956.78;;;3.31;85.86
13414;BME280;6778;48.136;11.386;2023-01-08T00:09:33;94956.00;;;3.16;86.54
13414;BME280;6778;48.136;11.386;2023-01-08T00:12:03;94955.81;;;3.17;87.08
13414;BME280;6778;48.136;11.386;2023-01-08T00:14:33;94957.78;;;3.15;86.43
13414;BME280;6778;48.136;11.386;2023-01-08T00:17:03;94944.66;;;3.17;85.62
13414;BME280;6778;48.136;11.386;2023-01-08T00:19:37;94932.53;;;3.03;85.90
13414;BME280;6778;48.136;11.386;2023-01-08T00:22:09;94923.63;;;2.61;87.40
13414;BME280;6778;48.136;11.386;2023-01-08T00:24:38;94923.09;;;2.80;87.41
13414;BME280;6778;48.136;11.386;2023-01-08T00:27:08;94924.34;;;2.99;86.99
13414;BME280;6778;48.136;11.386;2023-01-08T00:29:38;94922.47;;;3.08;86.58
13414;BME280;6778;48.136;11.386;2023-01-08T00:32:08;94921.38;;;3.17;86.08
13414;BME280;6778;48.136;11.386;2023-01-08T00:34:40;94918.19;;;3.00;86.66
13414;BME280;6778;48.136;11.386;2023-01-08T00:37:10;94920.94;;;2.69;87.97
13414;BME280;6778;48.136;11.386;2023-01-08T00:39:40;94927.03;;;3.06;87.21
13414;BME280;6778;48.136;11.386;2023-01-08T00:42:11;94915.47;;;3.23;86.42
13414;BME280;6778;48.136;11.386;2023-01-08T00:44:41;94922.09;;;3.25;85.87
13414;BME280;6778;48.136;11.386;2023-01-08T00:47:11;94914.56;;;3.31;85.58
13414;BME280;6778;48.136;11.386;2023-01-08T00:49:44;94920.63;;;3.38;85.17
13414;BME280;6778;48.136;11.386;2023-01-08T00:52:14;94920.69;;;3.44;84.78
13414;BME280;6778;48.136;11.386;2023-01-08T00:54:44;94911.16;;;3.45;84.44
13414;BME280;6778;48.136;11.386;2023-01-08T00:57:13;94910.13;;;3.39;84.61
13414;BME280;6778;48.136;11.386;2023-01-08T00:59:44;94913.59;;;3.32;84.91
13414;BME280;6778;48.136;11.386;2023-01-08T01:02:14;94922.25;;;3.39;84.91
13414;BME280;6778;48.136;11.386;2023-01-08T01:04:47;94919.41;;;3.34;84.81
13414;BME280;6778;48.136;11.386;2023-01-08T01:07:17;94924.78;;;3.32;84.98
13414;BME280;6778;48.136;11.386;2023-01-08T01:09:47;94926.97;;;3.35;84.82
13414;BME280;6778;48.136;11.386;2023-01-08T01:12:17;94933.94;;;3.35;84.92
13414;BME280;6778;48.136;11.386;2023-01-08T01:14:47;94929.38;;;3.37;84.85
13414;BME280;6778;48.136;11.386;2023-01-08T01:17:17;94926.00;;;3.36;84.86
13414;BME280;6778;48.136;11.386;2023-01-08T01:19:49;94928.31;;;3.31;84.96
13414;BME280;6778;48.136;11.386;2023-01-08T01:22:19;94926.53;;;3.32;84.46
13414;BME280;6778;48.136;11.386;2023-01-08T01:24:49;94923.06;;;3.24;84.35
13414;BME280;6778;48.136;11.386;2023-01-08T01:27:19;94909.81;;;3.13;84.97
13414;BME280;6778;48.136;11.386;2023-01-08T01:29:49;94905.88;;;2.87;84.86
13414;BME280;6778;48.136;11.386;2023-01-08T01:32:19;94910.97;;;2.81;85.55
13414;BME280;6778;48.136;11.386;2023-01-08T01:34:52;94906.50;;;2.74;85.95
13414;BME280;6778;48.136;11.386;2023-01-08T01:37:22;94918.03;;;2.87;85.26
13414;BME280;6778;48.136;11.386;2023-01-08T01:39:52;94915.88;;;3.05;84.49
13414;BME280;6778;48.136;11.386;2023-01-08T01:42:22;94908.66;;;3.00;84.19
13414;BME280;6778;48.136;11.386;2023-01-08T01:45:15;94914.53;;;2.94;84.14
13414;BME280;6778;48.136;11.386;2023-01-08T01:47:52;94914.25;;;3.04;83.64
13414;BME280;6778;48.136;11.386;2023-01-08T01:50:31;94895.56;;;2.72;83.91
13414;BME280;6778;48.136;11.386;2023-01-08T01:53:06;94890.00;;;2.76;84.55
13414;BME280;6778;48.136;11.386;2023-01-08T01:55:41;94889.28;;;2.82;84.50
13414;BME280;6778;48.136;11.386;2023-01-08T01:58:14;94891.88;;;2.67;84.49
13414;BME280;6778;48.136;11.386;2023-01-08T02:00:45;94887.41;;;2.90;83.67
13414;BME280;6778;48.136;11.386;2023-01-08T02:03:20;94885.63;;;2.91;83.42
13414;BME280;6778;48.136;11.386;2023-01-08T02:05:56;94888.84;;;2.93;83.38
13414;BME280;6778;48.136;11.386;2023-01-08T02:08:37;94890.28;;;2.95;83.30
13414;BME280;6778;48.136;11.386;2023-01-08T02:11:15;94878.94;;;2.96;83.06
13414;BME280;6778;48.136;11.386;2023-01-08T02:13:54;94873.78;;;2.82;83.20
13414;BME280;6778;48.136;11.386;2023-01-08T02:16:35;94880.81;;;2.88;83.15
13414;BME280;6778;48.136;11.386;2023-01-08T02:19:18;94868.78;;;2.95;83.11
13414;BME280;6778;48.136;11.386;2023-01-08T02:22:06;94853.97;;;2.89;83.00
13414;BME280;6778;48.136;11.386;2023-01-08T02:24:50;94853.72;;;2.84;83.10
13414;BME280;6778;48.136;11.386;2023-01-08T02:27:28;94858.00;;;2.91;82.54
13414;BME280;6778;48.136;11.386;2023-01-08T02:30:02;94854.16;;;2.87;82.51
13414;BME280;6778;48.136;11.386;2023-01-08T02:32:37;94854.59;;;2.91;82.71
13414;BME280;6778;48.136;11.386;2023-01-08T02:35:09;94845.59;;;2.87;82.21
13414;BME280;6778;48.136;11.386;2023-01-08T02:37:39;94841.84;;;2.89;82.16
13414;BME280;6778;48.136;11.386;2023-01-08T02:40:17;94846.41;;;2.87;82.17
13414;BME280;6778;48.136;11.386;2023-01-08T02:42:58;94839.66;;;2.71;83.14
13414;BME280;6778;48.136;11.386;2023-01-08T02:45:36;94848.03;;;2.73;82.88
13414;BME280;6778;48.136;11.386;2023-01-08T02:48:11;94841.88;;;2.74;82.64
13414;BME280;6778;48.136;11.386;2023-01-08T02:50:47;94850.53;;;2.52;83.57
13414;BME280;6778;48.136;11.386;2023-01-08T02:53:21;94849.63;;;2.60;83.68
13414;BME280;6778;48.136;11.386;2023-01-08T02:55:57;94836.34;;;2.48;83.88
13414;BME280;6778;48.136;11.386;2023-01-08T02:58:32;94835.28;;;2.57;83.48
13414;BME280;6778;48.136;11.386;2023-01-08T03:01:08;94832.97;;;2.62;83.27
13414;BME280;6778;48.136;11.386;2023-01-08T03:03:43;94828.59;;;2.63;82.88
13414;BME280;6778;48.136;11.386;2023-01-08T03:06:17;94825.84;;;2.64;82.99
13414;BME280;6778;48.136;11.386;2023-01-08T03:08:51;94816.31;;;2.65;82.79
13414;BME280;6778;48.136;11.386;2023-01-08T03:11:24;94823.97;;;2.43;83.48
13414;BME280;6778;48.136;11.386;2023-01-08T03:14:07;94808.53;;;2.21;84.47
13414;BME280;6778;48.136;11.386;2023-01-08T03:16:44;94811.78;;;2.37;83.95
13414;BME280;6778;48.136;11.386;2023-01-08T03:19:20;94816.47;;;2.49;83.49
13414;BME280;6778;48.136;11.386;2023-01-08T03:21:51;94812.47;;;2.46;83.72
13414;BME280;6778;48.136;11.386;2023-01-08T03:24:24;94813.09;;;2.48;83.74
13414;BME280;6778;48.136;11.386;2023-01-08T03:26:58;94811.22;;;2.42;83.68
13414;BME280;6778;48.136;11.386;2023-01-08T03:29:34;94818.34;;;2.40;83.25
13414;BME280;6778;48.136;11.386;2023-01-08T03:32:10;94804.81;;;2.38;83.34
13414;BME280;6778;48.136;11.386;2023-01-08T03:34:45;94809.28;;;2.44;83.11
13414;BME280;6778;48.136;11.386;2023-01-08T03:37:24;94797.97;;;2.45;83.39
13414;BME280;6778;48.136;11.386;2023-01-08T03:39:59;94787.78;;;2.29;83.84
13414;BME280;6778;48.136;11.386;2023-01-08T03:42:32;94781.31;;;2.18;83.87
13414;BME280;6778;48.136;11.386;2023-01-08T03:45:06;94781.91;;;2.20;84.20
13414;BME280;6778;48.136;11.386;2023-01-08T03:47:39;94782.28;;;2.32;83.85
13414;BME280;6778;48.136;11.386;2023-01-08T03:50:15;94770.22;;;2.09;84.30
13414;BME280;6778;48.136;11.386;2023-01-08T03:52:47;94764.09;;;2.10;84.43
13414;BME280;6778;48.136;11.386;2023-01-08T03:55:18;94761.16;;;2.13;84.83
13414;BME280;6778;48.136;11.386;2023-01-08T03:57:51;94762.22;;;2.19;84.43
13414;BME280;6778;48.136;11.386;2023-01-08T04:00:24;94757.88;;;2.19;84.17
13414;BME280;6778;48.136;11.386;2023-01-08T04:02:57;94760.06;;;2.23;84.10
13414;BME280;6778;48.136;11.386;2023-01-08T04:05:27;94763.38;;;2.16;84.07
13414;BME280;6778;48.136;11.386;2023-01-08T04:07:57;94759.66;;;2.19;84.28
13414;BME280;6778;48.136;11.386;2023-01-08T04:10:27;94762.41;;;2.17;84.40
13414;BME280;6778;48.136;11.386;2023-01-08T04:12:57;94760.88;;;2.08;85.02
13414;BME280;6778;48.136;11.386;2023-01-08T04:15:30;94755.63;;;2.02;84.98
13414;BME280;6778;48.136;11.386;2023-01-08T04:18:00;94756.88;;;1.91;85.63
13414;BME280;6778;48.136;11.386;2023-01-08T04:20:30;94750.38;;;1.95;85.77
13414;BME280;6778;48.136;11.386;2023-01-08T04:23:00;94750.56;;;1.94;85.43
13414;BME280;6778;48.136;11.386;2023-01-08T04:25:30;94745.84;;;2.12;85.65
13414;BME280;6778;48.136;11.386;2023-01-08T04:28:00;94746.53;;;2.21;84.84
13414;BME280;6778;48.136;11.386;2023-01-08T04:30:32;94753.97;;;2.24;84.77
13414;BME280;6778;48.136;11.386;2023-01-08T04:33:02;94742.97;;;2.22;84.87
13414;BME280;6778;48.136;11.386;2023-01-08T04:35:32;94736.13;;;2.29;84.54
13414;BME280;6778;48.136;11.386;2023-01-08T04:38:04;94735.59;;;1.89;85.81
13414;BME280;6778;48.136;11.386;2023-01-08T04:40:36;94737.16;;;1.75;87.15
13414;BME280;6778;48.136;11.386;2023-01-08T04:43:06;94723.03;;;2.01;86.79
13414;BME280;6778;48.136;11.386;2023-01-08T04:45:39;94728.91;;;1.95;86.43
13414;BME280;6778;48.136;11.386;2023-01-08T04:48:09;94719.47;;;1.87;86.13
13414;BME280;6778;48.136;11.386;2023-01-08T04:50:39;94716.63;;;1.82;85.95
13414;BME280;6778;48.136;11.386;2023-01-08T04:53:09;94721.78;;;1.82;86.75
13414;BME280;6778;48.136;11.386;2023-01-08T04:55:38;94720.63;;;1.84;86.01
13414;BME280;6778;48.136;11.386;2023-01-08T04:58:08;94729.97;;;1.85;85.68
13414;BME280;6778;48.136;11.386;2023-01-08T05:00:41;94722.53;;;1.90;85.33
13414;BME280;6778;48.136;11.386;2023-01-08T05:03:11;94740.88;;;2.10;85.00
13414;BME280;6778;48.136;11.386;2023-01-08T05:05:41;94733.34;;;2.15;84.37
13414;BME280;6778;48.136;11.386;2023-01-08T05:08:11;94730.34;;;2.12;84.64
13414;BME280;6778;48.136;11.386;2023-01-08T05:10:41;94725.63;;;2.01;85.15
13414;BME280;6778;48.136;11.386;2023-01-08T05:13:14;94730.06;;;2.07;84.87
13414;BME280;6778;48.136;11.386;2023-01-08T05:15:46;94726.22;;;2.03;85.06
13414;BME280;6778;48.136;11.386;2023-01-08T05:18:16;94713.88;;;1.98;85.51
13414;BME280;6778;48.136;11.386;2023-01-08T05:20:46;94709.41;;;2.07;85.31
13414;BME280;6778;48.136;11.386;2023-01-08T05:23:16;94716.53;;;2.19;84.77
13414;BME280;6778;48.136;11.386;2023-01-08T05:25:50;94705.31;;;2.12;84.79
13414;BME280;6778;48.136;11.386;2023-01-08T05:28:19;94713.06;;;2.12;84.84
13414;BME280;6778;48.136;11.386;2023-01-08T05:30:52;94707.34;;;2.02;84.92
13414;BME280;6778;48.136;11.386;2023-01-08T05:33:24;94704.97;;;2.01;85.38
13414;BME280;6778;48.136;11.386;2023-01-08T05:35:55;94708.16;;;2.03;85.44
13414;BME280;6778;48.136;11.386;2023-01-08T05:38:25;94712.19;;;2.05;84.74
13414;BME280;6778;48.136;11.386;2023-01-08T05:40:55;94718.75;;;2.08;84.72
13414;BME280;6778;48.136;11.386;2023-01-08T05:43:25;94720.28;;;2.17;84.76
13414;BME280;6778;48.136;11.386;2023-01-08T05:46:02;94714.81;;;2.27;84.69
13414;BME280;6778;48.136;11.386;2023-01-08T05:48:34;94708.06;;;2.26;84.79
13414;BME280;6778;48.136;11.386;2023-01-08T05:51:04;94710.75;;;2.17;84.85
13414;BME280;6778;48.136;11.386;2023-01-08T05:53:37;94714.66;;;2.13;85.34
13414;BME280;6778;48.136;11.386;2023-01-08T05:56:09;94717.03;;;2.30;85.32
13414;BME280;6778;48.136;11.386;2023-01-08T05:58:41;94721.88;;;2.33;84.65
13414;BME280;6778;48.136;11.386;2023-01-08T06:01:14;94715.00;;;2.40;84.25
13414;BME280;6778;48.136;11.386;2023-01-08T06:03:44;94722.47;;;2.35;84.67
13414;BME280;6778;48.136;11.386;2023-01-08T06:06:14;94724.25;;;2.34;84.90
13414;BME280;6778;48.136;11.386;2023-01-08T06:08:45;94718.09;;;2.35;85.39
13414;BME280;6778;48.136;11.386;2023-01-08T06:11:19;94723.72;;;2.39;84.64
13414;BME280;6778;48.136;11.386;2023-01-08T06:13:49;94725.75;;;2.43;84.61
13414;BME280;6778;48.136;11.386;2023-01-08T06:16:23;94716.56;;;2.56;83.97
13414;BME280;6778;48.136;11.386;2023-01-08T06:18:55;94721.53;;;2.57;83.74
13414;BME280;6778;48.136;11.386;2023-01-08T06:21:26;94704.69;;;2.61;83.71
13414;BME280;6778;48.136;11.386;2023-01-08T06:23:56;94713.69;;;2.65;83.47
13414;BME280;6778;48.136;11.386;2023-01-08T06:26:26;94722.84;;;2.68;83.28
13414;BME280;6778;48.136;11.386;2023-01-08T06:28:57;94709.31;;;2.66;83.07
13414;BME280;6778;48.136;11.386;2023-01-08T06:31:32;94708.34;;;2.67;82.85
13414;BME280;6778;48.136;11.386;2023-01-08T06:34:02;94713.50;;;2.67;82.95
13414;BME280;6778;48.136;11.386;2023-01-08T06:36:32;94720.09;;;2.69;82.94
13414;BME280;6778;48.136;11.386;2023-01-08T06:39:04;94724.19;;;2.64;83.00
13414;BME280;6778;48.136;11.386;2023-01-08T06:41:35;94714.84;;;2.63;82.81
13414;BME280;6778;48.136;11.386;2023-01-08T06:44:05;94724.09;;;2.72;82.98
13414;BME280;6778;48.136;11.386;2023-01-08T06:46:40;94728.25;;;2.88;81.92
13414;BME280;6778;48.136;11.386;2023-01-08T06:49:11;94718.88;;;2.87;81.49
13414;BME280;6778;48.136;11.386;2023-01-08T06:51:41;94721.09;;;2.90;81.81
13414;BME280;6778;48.136;11.386;2023-01-08T06:54:11;94711.44;;;2.98;81.15
13414;BME280;6778;48.136;11.386;2023-01-08T06:56:40;94717.41;;;2.99;80.34
13414;BME280;6778;48.136;11.386;2023-01-08T06:59:19;94722.59;;;2.99;80.28
13414;BME280;6778;48.136;11.386;2023-01-08T07:01:52;94726.25;;;2.90;81.39
13414;BME280;6778;48.136;11.386;2023-01-08T07:04:22;94720.75;;;2.93;81.18
13414;BME280;6778;48.136;11.386;2023-01-08T07:06:52;94722.47;;;2.86;81.09
13414;BME280;6778;48.136;11.386;2023-01-08T07:09:22;94729.50;;;2.92;80.56
13414;BME280;6778;48.136;11.386;2023-01-08T07:11:52;94735.16;;;3.02;79.95
13414;BME280;6778;48.136;11.386;2023-01-08T07:14:22;94739.78;;;3.28;80.33
13414;BME280;6778;48.136;11.386;2023-01-08T07:16:55;94740.63;;;3.35;80.25
13414;BME280;6778;48.136;11.386;2023-01-08T07:19:25;94730.75;;;3.45;79.98
13414;BME280;6778;48.136;11.386;2023-01-08T07:21:54;94724.47;;;3.54;78.68
13414;BME280;6778;48.136;11.386;2023-01-08T07:24:24;94716.59;;;3.69;77.61
13414;BME280;6778;48.136;11.386;2023-01-08T07:26:54;94715.00;;;3.68;76.85
13414;BME280;6778;48.136;11.386;2023-01-08T07:29:25;94719.13;;;3.91;76.14
13414;BME280;6778;48.136;11.386;2023-01-08T07:31:57;94711.94;;;3.93;76.20
13414;BME280;6778;48.136;11.386;2023-01-08T07:34:27;94716.97;;;3.94;75.47
13414;BME280;6778;48.136;11.386;2023-01-08T07:36:58;94718.41;;;4.03;75.09
13414;BME280;6778;48.136;11.386;2023-01-08T07:39:28;94721.19;;;4.02;74.10
13414;BME280;6778;48.136;11.386;2023-01-08T07:41:58;94718.22;;;4.05;74.57
13414;BME280;6778;48.136;11.386;2023-01-08T07:44:28;94714.44;;;4.07;73.96
13414;BME280;6778;48.136;11.386;2023-01-08T07:47:01;94709.28;;;4.07;73.64
13414;BME280;6778;48.136;11.386;2023-01-08T07:49:31;94721.63;;;4.12;74.17
13414;BME280;6778;48.136;11.386;2023-01-08T07:52:01;94719.94;;;4.32;75.92
13414;BME280;6778;48.136;11.386;2023-01-08T07:54:31;94703.19;;;4.28;75.52
13414;BME280;6778;48.136;11.386;2023-01-08T07:57:01;94714.31;;;4.22;74.22
13414;BME280;6778;48.136;11.386;2023-01-08T07:59:31;94705.09;;;4.54;74.97
13414;BME280;6778;48.136;11.386;2023-01-08T08:02:04;94700.91;;;4.66;74.92
13414;BME280;6778;48.136;11.386;2023-01-08T08:04:34;94711.16;;;4.75;74.42
13414;BME280;6778;48.136;11.386;2023-01-08T08:07:04;94702.53;;;4.68;73.34
13414;BME280;6778;48.136;11.386;2023-01-08T08:09:34;94706.75;;;4.69;73.43
13414;BME280;6778;48.136;11.386;2023-01-08T08:12:04;94726.84;;;4.66;72.67
13414;BME280;6778;48.136;11.386;2023-01-08T08:14:34;94725.13;;;4.87;72.46
13414;BME280;6778;48.136;11.386;2023-01-08T08:17:06;94730.75;;;4.90;72.57
13414;BME280;6778;48.136;11.386;2023-01-08T08:19:37;94737.16;;;5.14;72.98
13414;BME280;6778;48.136;11.386;2023-01-08T08:22:09;94729.25;;;5.49;72.84
13414;BME280;6778;48.136;11.386;2023-01-08T08:24:39;94721.22;;;5.77;72.92
13414;BME280;6778;48.136;11.386;2023-01-08T08:27:09;94717.84;;;5.70;72.52
13414;BME280;6778;48.136;11.386;2023-01-08T08:29:39;94722.25;;;5.76;71.28
13414;BME280;6778;48.136;11.386;2023-01-08T08:32:12;94708.59;;;6.14;70.66
13414;BME280;6778;48.136;11.386;2023-01-08T08:34:41;94709.41;;;6.08;69.15
13414;BME280;6778;48.136;11.386;2023-01-08T08:37:11;94710.31;;;6.40;68.68
13414;BME280;6778;48.136;11.386;2023-01-08T08:39:41;94722.75;;;6.38;68.52
13414;BME280;6778;48.136;11.386;2023-01-08T08:42:11;94726.13;;;6.45;67.17
13414;BME280;6778;48.136;11.386;2023-01-08T08:44:41;94726.13;;;6.90;66.63
13414;BME280;6778;48.136;11.386;2023-01-08T08:47:14;94727.28;;;7.00;65.84
13414;BME280;6778;48.136;11.386;2023-01-08T08:49:44;94733.41;;;6.74;64.87
13414;BME280;6778;48.136;11.386;2023-01-08T08:52:14;94713.41;;;6.68;64.00
13414;BME280;6778;48.136;11.386;2023-01-08T08:54:43;94699.22;;;7.02;62.72
13414;BME280;6778;48.136;11.386;2023-01-08T08:57:14;94699.81;;;7.36;62.00
13414;BME280;6778;48.136;11.386;2023-01-08T08:59:44;94714.25;;;8.25;59.79
13414;BME280;6778;48.136;11.386;2023-01-08T09:02:16;94705.38;;;8.69;57.94
13414;BME280;6778;48.136;11.386;2023-01-08T09:04:47;94718.69;;;8.25;58.96
13414;BME280;6778;48.136;11.386;2023-01-08T09:07:17;94718.97;;;8.16;58.64
13414;BME280;6778;48.136;11.386;2023-01-08T09:09:47;94725.38;;;8.20;59.58
13414;BME280;6778;48.136;11.386;2023-01-08T09:12:17;94728.22;;;8.37;58.57
13414;BME280;6778;48.136;11.386;2023-01-08T09:14:50;94729.47;;;8.10;59.12
13414;BME280;6778;48.136;11.386;2023-01-08T09:17:23;94734.63;;;8.16;59.12
13414;BME280;6778;48.136;11.386;2023-01-08T09:19:54;94733.59;;;7.74;60.27
13414;BME280;6778;48.136;11.386;2023-01-08T09:22:24;94726.75;;;7.80;60.91
13414;BME280;6778;48.136;11.386;2023-01-08T09:24:54;94738.59;;;7.76;60.98
13414;BME280;6778;48.136;11.386;2023-01-08T09:27:24;94739.56;;;7.81;60.82
13414;BME280;6778;48.136;11.386;2023-01-08T09:29:54;94727.56;;;7.99;60.94
13414;BME280;6778;48.136;11.386;2023-01-08T09:32:26;94737.09;;;8.30;60.12
13414;BME280;6778;48.136;11.386;2023-01-08T09:34:56;94733.38;;;8.44;59.91
13414;BME280;6778;48.136;11.386;2023-01-08T09:37:26;94730.56;;;8.94;58.91
13414;BME280;6778;48.136;11.386;2023-01-08T09:39:56;94734.50;;;8.66;58.92
13414;BME280;6778;48.136;11.386;2023-01-08T09:42:30;94731.66;;;10.87;53.13
13414;BME280;6778;48.136;11.386;2023-01-08T09:45:02;94722.81;;;11.33;51.33
13414;BME280;6778;48.136;11.386;2023-01-08T09:47:38;94714.34;;;12.88;47.83
13414;BME280;6778;48.136;11.386;2023-01-08T09:50:13;94705.84;;;13.83;45.17
13414;BME280;6778;48.136;11.386;2023-01-08T09:52:43;94701.97;;;12.66;48.21
13414;BME280;6778;48.136;11.386;2023-01-08T09:55:14;94685.47;;;13.74;46.94
13414;BME280;6778;48.136;11.386;2023-01-08T09:57:45;94683.19;;;12.74;49.13
13414;BME280;6778;48.136;11.386;2023-01-08T10:00:21;94672.56;;;16.16;42.51
13414;BME280;6778;48.136;11.386;2023-01-08T10:02:57;94671.31;;;14.22;44.63
13414;BME280;6778;48.136;11.386;2023-01-08T10:05:29;94675.97;;;12.65;48.80
13414;BME280;6778;48.136;11.386;2023-01-08T10:07:59;94684.81;;;12.58;48.85
13414;BME280;6778;48.136;11.386;2023-01-08T10:10:31;94687.41;;;14.26;46.52
13414;BME280;6778;48.136;11.386;2023-01-08T10:13:01;94686.59;;;14.20;46.06
13414;BME280;6778;48.136;11.386;2023-01-08T10:15:32;94688.91;;;13.74;46.53
13414;BME280;6778;48.136;11.386;2023-01-08T10:18:09;94692.94;;;14.29;44.51
13414;BME280;6778;48.136;11.386;2023-01-08T10:20:40;94671.88;;;13.82;46.73
13414;BME280;6778;48.136;11.386;2023-01-08T10:23:13;94679.31;;;14.95;44.74
13414;BME280;6778;48.136;11.386;2023-01-08T10:25:49;94685.84;;;14.72;45.38
13414;BME280;6778;48.136;11.386;2023-01-08T10:28:22;94685.66;;;13.08;47.09
13414;BME280;6778;48.136;11.386;2023-01-08T10:30:58;94676.66;;;13.58;47.23
13414;BME280;6778;48.136;11.386;2023-01-08T10:33:41;94672.94;;;11.79;50.43
13414;BME280;6778;48.136;11.386;2023-01-08T10:36:15;94673.63;;;11.86;51.65
13414;BME280;6778;48.136;11.386;2023-01-08T10:38:51;94668.44;;;11.12;52.03
13414;BME280;6778;48.136;11.386;2023-01-08T10:41:22;94666.22;;;10.11;54.33
13414;BME280;6778;48.136;11.386;2023-01-08T10:43:55;94674.75;;;10.07;55.45
13414;BME280;6778;48.136;11.386;2023-01-08T10:46:31;94672.03;;;10.25;55.74
13414;BME280;6778;48.136;11.386;2023-01-08T10:49:12;94683.16;;;9.74;56.76
13414;BME280;6778;48.136;11.386;2023-01-08T10:51:48;94677.38;;;9.18;56.73
13414;BME280;6778;48.136;11.386;2023-01-08T10:54:31;94677.66;;;9.28;57.41
13414;BME280;6778;48.136;11.386;2023-01-08T10:57:01;94684.09;;;9.26;56.47
13414;BME280;6778;48.136;11.386;2023-01-08T10:59:35;94683.50;;;9.12;56.91
13414;BME280;6778;48.136;11.386;2023-01-08T11:02:23;94663.34;;;8.89;57.39
13414;BME280;6778;48.136;11.386;2023-01-08T11:04:58;94674.97;;;8.75;57.72
13414;BME280;6778;48.136;11.386;2023-01-08T11:07:31;94673.31;;;8.92;58.27
13414;BME280;6778;48.136;11.386;2023-01-08T11:10:04;94679.88;;;8.83;58.28
13414;BME280;6778;48.136;11.386;2023-01-08T11:12:36;94685.25;;;8.88;58.87
13414;BME280;6778;48.136;11.386;2023-01-08T11:15:27;94661.31;;;8.43;58.76
13414;BME280;6778;48.136;11.386;2023-01-08T11:18:15;94631.09;;;8.35;59.37
13414;BME280;6778;48.136;11.386;2023-01-08T11:20:52;94610.34;;;8.22;60.24
13414;BME280;6778;48.136;11.386;2023-01-08T11:23:24;94619.91;;;7.91;61.17
13414;BME280;6778;48.136;11.386;2023-01-08T11:26:02;94614.78;;;8.21;60.40
13414;BME280;6778;48.136;11.386;2023-01-08T11:28:55;94612.03;;;8.16;60.69
13414;BME280;6778;48.136;11.386;2023-01-08T11:31:38;94607.81;;;8.34;60.52
13414;BME280;6778;48.136;11.386;2023-01-08T11:34:15;94606.25;;;8.63;59.53
13414;BME280;6778;48.136;11.386;2023-01-08T11:36:55;94611.16;;;8.41;58.65
13414;BME280;6778;48.136;11.386;2023-01-08T11:39:28;94596.59;;;8.63;57.66
13414;BME280;6778;48.136;11.386;2023-01-08T11:42:13;94589.75;;;8.81;57.03
13414;BME280;6778;48.136;11.386;2023-01-08T11:45:01;94580.81;;;9.12;57.50
13414;BME280;6778;48.136;11.386;2023-01-08T11:47:49;94585.50;;;8.68;56.98
13414;BME280;6778;48.136;11.386;2023-01-08T11:50:26;94580.44;;;8.85;56.82
13414;BME280;6778;48.136;11.386;2023-01-08T11:53:13;94587.84;;;8.99;57.30
13414;BME280;6778;48.136;11.386;2023-01-08T11:55:55;94588.75;;;9.05;56.98
13414;BME280;6778;48.136;11.386;2023-01-08T11:58:42;94591.72;;;9.09;57.24
13414;BME280;6778;48.136;11.386;2023-01-08T12:01:28;94591.94;;;9.07;57.96
13414;BME280;6778;48.136;11.386;2023-01-08T12:04:22;94590.34;;;9.06;57.91
13414;BME280;6778;48.136;11.386;2023-01-08T12:07:07;94589.56;;;9.06;57.67
13414;BME280;6778;48.136;11.386;2023-01-08T12:09:50;94589.66;;;8.99;58.40
13414;BME280;6778;48.136;11.386;2023-01-08T12:12:40;94584.44;;;8.99;58.91
13414;BME280;6778;48.136;11.386;2023-01-08T12:15:19;94574.88;;;8.93;58.77
13414;BME280;6778;48.136;11.386;2023-01-08T12:18:14;94572.72;;;8.90;59.46
13414;BME280;6778;48.136;11.386;2023-01-08T12:20:53;94569.44;;;8.94;59.54
13414;BME280;6778;48.136;11.386;2023-01-08T12:23:44;94563.19;;;8.95;59.50
13414;BME280;6778;48.136;11.386;2023-01-08T12:26:26;94556.81;;;8.91;59.49
13414;BME280;6778;48.136;11.386;2023-01-08T12:29:13;94544.19;;;8.77;59.54
13414;BME280;6778;48.136;11.386;2023-01-08T12:32:01;94541.13;;;8.80;59.39
13414;BME280;6778;48.136;11.386;2023-01-08T12:34:46;94528.75;;;8.75;60.11
13414;BME280;6778;48.136;11.386;2023-01-08T12:37:25;94529.75;;;8.62;60.14
13414;BME280;6778;48.136;11.386;2023-01-08T12:40:02;94523.41;;;8.70;60.19
13414;BME280;6778;48.136;11.386;2023-01-08T12:42:40;94519.53;;;8.72;60.74
13414;BME280;6778;48.136;11.386;2023-01-08T12:45:24;94508.31;;;8.60;61.84
13414;BME280;6778;48.136;11.386;2023-01-08T12:48:03;94495.47;;;8.59;61.59
13414;BME280;6778;48.136;11.386;2023-01-08T12:50:58;94495.22;;;8.48;61.63
13414;BME280;6778;48.136;11.386;2023-01-08T12:53:42;94499.31;;;8.56;61.60
13414;BME280;6778;48.136;11.386;2023-01-08T12:56:25;94508.06;;;8.62;61.75
13414;BME280;6778;48.136;11.386;2023-01-08T12:59:13;94511.63;;;8.67;61.06
13414;BME280;6778;48.136;11.386;2023-01-08T13:01:49;94505.00;;;8.65;61.23
13414;BME280;6778;48.136;11.386;2023-01-08T13:04:21;94514.56;;;8.71;61.54
13414;BME280;6778;48.136;11.386;2023-01-08T13:06:58;94511.72;;;8.72;61.92
13414;BME280;6778;48.136;11.386;2023-01-08T13:09:31;94503.78;;;8.67;61.07
13414;BME280;6778;48.136;11.386;2023-01-08T13:12:01;94505.38;;;8.68;60.55
13414;BME280;6778;48.136;11.386;2023-01-08T13:14:46;94494.81;;;8.75;59.59
13414;BME280;6778;48.136;11.386;2023-01-08T13:17:21;94487.09;;;8.80;60.07
13414;BME280;6778;48.136;11.386;2023-01-08T13:19:54;94481.84;;;8.57;59.15
13414;BME280;6778;48.136;11.386;2023-01-08T13:22:31;94480.94;;;8.63;59.62
13414;BME280;6778;48.136;11.386;2023-01-08T13:25:29;94482.06;;;8.67;60.02
13414;BME280;6778;48.136;11.386;2023-01-08T13:28:04;94473.91;;;8.63;60.59
13414;BME280;6778;48.136;11.386;2023-01-08T13:30:51;94463.94;;;8.72;59.78
13414;BME280;6778;48.136;11.386;2023-01-08T13:33:25;94460.41;;;8.66;60.30
13414;BME280;6778;48.136;11.386;2023-01-08T13:36:17;94451.19;;;8.52;61.04
13414;BME280;6778;48.136;11.386;2023-01-08T13:39:03;94448.78;;;8.39;61.00
13414;BME280;6778;48.136;11.386;2023-01-08T13:41:36;94444.88;;;8.30;61.47
13414;BME280;6778;48.136;11.386;2023-01-08T13:44:19;94439.22;;;8.33;61.24
13414;BME280;6778;48.136;11.386;2023-01-08T13:46:57;94448.22;;;8.37;61.39